createdAt,value
2017-04-24T00:00:40.995Z,85.20
2017-04-24T00:01:40.275Z,84.50
2017-04-24T00:02:39.552Z,84.90
2017-04-24T00:03:39.169Z,84.60
2017-04-24T00:04:38.756Z,84.90
2017-04-24T00:05:38.066Z,84.80
2017-04-24T00:06:37.303Z,84.70
2017-04-24T00:07:36.820Z,84.80
2017-04-24T00:08:36.426Z,84.60
2017-04-24T00:09:36.037Z,84.60
2017-04-24T00:10:35.489Z,84.80
2017-04-24T00:11:35.818Z,85.00
2017-04-24T00:12:35.065Z,84.80
2017-04-24T00:13:34.316Z,84.80
2017-04-24T00:14:33.569Z,84.40
2017-04-24T00:15:33.898Z,84.50
2017-04-24T00:16:33.476Z,84.60
2017-04-24T00:17:33.464Z,84.10
2017-04-24T00:18:33.049Z,83.40
2017-04-24T00:19:33.424Z,83.40
2017-04-24T00:20:32.660Z,83.40
2017-04-24T00:21:32.605Z,83.20
2017-04-24T00:22:31.852Z,83.70
2017-04-24T00:23:31.093Z,82.90
2017-04-24T00:24:30.677Z,82.70
2017-04-24T00:25:31.042Z,82.80
2017-04-24T00:26:30.284Z,82.40
2017-04-24T00:27:30.280Z,83.20
2017-04-24T00:28:30.618Z,83.20
2017-04-24T00:29:30.204Z,83.30
2017-04-24T00:30:29.732Z,83.50
2017-04-24T00:31:29.349Z,83.00
2017-04-24T00:32:28.621Z,84.00
2017-04-24T00:33:28.214Z,83.60
2017-04-24T00:34:28.497Z,84.40
2017-04-24T00:35:27.735Z,84.20
2017-04-24T00:36:28.163Z,83.90
2017-04-24T00:37:27.441Z,83.60
2017-04-24T00:38:27.382Z,84.50
2017-04-24T00:39:27.353Z,84.10
2017-04-24T00:40:26.595Z,84.10
2017-04-24T00:41:25.841Z,84.00
2017-04-24T00:42:25.078Z,84.00
2017-04-24T00:43:24.357Z,84.00
2017-04-24T00:44:24.348Z,84.20
2017-04-24T00:45:25.420Z,84.10
2017-04-24T00:46:24.680Z,83.90
2017-04-24T00:47:24.660Z,83.50
2017-04-24T00:48:23.940Z,83.90
2017-04-24T00:49:23.590Z,83.70
2017-04-24T00:50:22.823Z,83.40
2017-04-24T00:51:22.065Z,83.60
2017-04-24T00:52:22.380Z,83.60
2017-04-24T00:53:21.902Z,83.80
2017-04-24T00:54:21.161Z,83.60
2017-04-24T00:55:21.144Z,83.80
2017-04-24T00:56:20.377Z,83.30
2017-04-24T00:57:19.951Z,83.20
2017-04-24T00:58:19.937Z,83.80
2017-04-24T00:59:19.266Z,83.10
2017-04-24T01:00:18.536Z,83.20
2017-04-24T01:01:18.776Z,83.40
2017-04-24T01:02:18.579Z,83.20
2017-04-24T01:03:17.775Z,83.20
2017-04-24T01:04:17.296Z,83.20
2017-04-24T01:05:16.499Z,83.30
2017-04-24T01:06:16.419Z,83.20
2017-04-24T01:07:16.711Z,83.10
2017-04-24T01:08:16.243Z,82.30
2017-04-24T01:09:16.519Z,82.00
2017-04-24T01:10:16.059Z,82.10
2017-04-24T01:11:16.015Z,82.60
2017-04-24T01:12:15.215Z,82.20
2017-04-24T01:13:14.757Z,82.10
2017-04-24T01:14:13.963Z,82.10
2017-04-24T01:15:13.848Z,81.50
2017-04-24T01:16:13.047Z,81.80
2017-04-24T01:17:12.284Z,82.10
2017-04-24T01:18:11.811Z,81.90
2017-04-24T01:19:12.434Z,81.60
2017-04-24T01:20:12.741Z,81.30
2017-04-24T01:21:13.068Z,82.00
2017-04-24T01:22:13.034Z,81.00
2017-04-24T01:23:12.226Z,80.70
2017-04-24T01:24:11.439Z,80.80
2017-04-24T01:25:11.398Z,80.80
2017-04-24T01:26:10.617Z,80.10
2017-04-24T01:27:09.893Z,80.20
2017-04-24T01:28:09.816Z,80.20
2017-04-24T01:29:09.399Z,80.50
2017-04-24T01:30:08.632Z,80.50
2017-04-24T01:31:08.219Z,80.50
2017-04-24T01:32:08.544Z,80.30
2017-04-24T01:33:07.885Z,80.20
2017-04-24T01:34:07.377Z,80.50
2017-04-24T01:35:07.296Z,81.20
2017-04-24T01:36:06.848Z,80.60
2017-04-24T01:37:06.085Z,81.00
2017-04-24T01:38:05.318Z,80.60
2017-04-24T01:39:05.205Z,81.00
2017-04-24T01:40:05.564Z,81.50
2017-04-24T01:41:04.816Z,81.40
2017-04-24T01:42:05.156Z,81.40
2017-04-24T01:43:05.045Z,81.20
2017-04-24T01:44:04.276Z,81.60
2017-04-24T01:45:03.908Z,81.50
2017-04-24T01:46:03.517Z,81.50
2017-04-24T01:47:03.512Z,81.50
2017-04-24T01:48:03.851Z,81.40
2017-04-24T01:49:03.356Z,82.40
2017-04-24T01:50:02.589Z,81.70
2017-04-24T01:51:02.179Z,81.50
2017-04-24T01:52:01.458Z,81.60
2017-04-24T01:53:01.104Z,82.00
2017-04-24T01:54:01.425Z,81.70
2017-04-24T01:55:01.397Z,81.30
2017-04-24T01:56:00.638Z,80.70
2017-04-24T01:56:59.890Z,80.50
2017-04-24T01:57:59.160Z,80.90
2017-04-24T01:58:58.804Z,80.40
2017-04-24T01:59:58.785Z,80.40
2017-04-24T02:00:58.444Z,80.50
2017-04-24T02:01:57.701Z,81.10
2017-04-24T02:02:57.693Z,80.60
2017-04-24T02:03:57.700Z,80.90
2017-04-24T02:04:57.680Z,82.80
2017-04-24T02:05:56.921Z,81.00
2017-04-24T02:06:56.764Z,81.40
2017-04-24T02:07:56.005Z,81.80
2017-04-24T02:08:55.728Z,82.20
2017-04-24T02:09:55.001Z,82.50
2017-04-24T02:10:54.587Z,81.70
2017-04-24T02:11:54.904Z,82.00
2017-04-24T02:12:54.141Z,81.70
2017-04-24T02:13:53.378Z,83.00
2017-04-24T02:14:53.362Z,83.20
2017-04-24T02:15:53.317Z,81.90
2017-04-24T02:16:52.551Z,82.10
2017-04-24T02:17:51.784Z,81.80
2017-04-24T02:18:51.049Z,82.40
2017-04-24T02:19:51.408Z,82.90
2017-04-24T02:20:51.001Z,82.10
2017-04-24T02:21:50.608Z,81.80
2017-04-24T02:22:49.844Z,82.70
2017-04-24T02:23:49.074Z,82.50
2017-04-24T02:24:48.316Z,81.80
2017-04-24T02:25:47.553Z,83.30
2017-04-24T02:26:46.780Z,82.10
2017-04-24T02:27:46.385Z,82.10
2017-04-24T02:28:45.623Z,82.40
2017-04-24T02:29:45.388Z,82.20
2017-04-24T02:30:44.624Z,82.30
2017-04-24T02:31:44.201Z,82.20
2017-04-24T02:32:43.764Z,82.40
2017-04-24T02:33:43.029Z,83.00
2017-04-24T02:34:42.290Z,82.90
2017-04-24T02:35:41.520Z,82.80
2017-04-24T02:36:40.765Z,83.40
2017-04-24T02:37:40.012Z,83.00
2017-04-24T02:38:39.609Z,83.30
2017-04-24T02:39:38.876Z,83.10
2017-04-24T02:40:38.451Z,83.60
2017-04-24T02:41:38.032Z,83.50
2017-04-24T02:42:37.273Z,84.20
2017-04-24T02:43:37.256Z,84.00
2017-04-24T02:44:36.497Z,84.00
2017-04-24T02:45:36.508Z,84.10
2017-04-24T02:46:36.820Z,83.90
2017-04-24T02:47:36.832Z,84.40
2017-04-24T02:48:37.129Z,84.30
2017-04-24T02:49:36.744Z,84.10
2017-04-24T02:50:36.741Z,84.20
2017-04-24T02:51:36.724Z,83.90
2017-04-24T02:52:36.284Z,84.80
2017-04-24T02:53:36.205Z,84.70
2017-04-24T02:54:36.140Z,84.40
2017-04-24T02:55:35.399Z,84.40
2017-04-24T02:56:35.009Z,85.00
2017-04-24T02:57:34.473Z,84.70
2017-04-24T02:58:33.708Z,84.80
2017-04-24T02:59:33.621Z,84.50
2017-04-24T03:00:32.884Z,84.60
2017-04-24T03:01:32.768Z,84.50
2017-04-24T03:02:32.075Z,84.00
2017-04-24T03:03:31.370Z,84.40
2017-04-24T03:04:30.597Z,84.70
2017-04-24T03:05:31.248Z,84.20
2017-04-24T03:06:30.464Z,85.20
2017-04-24T03:07:30.324Z,84.30
2017-04-24T03:08:30.673Z,84.00
2017-04-24T03:09:30.236Z,84.40
2017-04-24T03:10:30.222Z,84.50
2017-04-24T03:11:29.444Z,84.90
2017-04-24T03:12:28.681Z,84.60
2017-04-24T03:13:28.606Z,84.30
2017-04-24T03:14:28.089Z,84.20
2017-04-24T03:15:27.307Z,84.10
2017-04-24T03:16:27.621Z,84.40
2017-04-24T03:17:27.929Z,84.30
2017-04-24T03:18:27.949Z,84.40
2017-04-24T03:19:27.961Z,84.40
2017-04-24T03:20:27.197Z,84.60
2017-04-24T03:21:27.508Z,84.40
2017-04-24T03:22:26.744Z,84.70
2017-04-24T03:23:26.705Z,84.60
2017-04-24T03:24:25.936Z,84.50
2017-04-24T03:25:25.954Z,84.70
2017-04-24T03:26:25.184Z,84.90
2017-04-24T03:27:24.400Z,84.90
2017-04-24T03:28:23.632Z,85.10
2017-04-24T03:29:22.861Z,85.40
2017-04-24T03:30:22.765Z,85.20
2017-04-24T03:31:22.429Z,85.40
2017-04-24T03:32:21.661Z,85.20
2017-04-24T03:33:20.896Z,85.30
2017-04-24T03:34:20.472Z,85.40
2017-04-24T03:35:20.440Z,85.90
2017-04-24T03:36:20.005Z,85.40
2017-04-24T03:37:19.956Z,85.60
2017-04-24T03:38:19.195Z,85.60
2017-04-24T03:39:18.641Z,86.40
2017-04-24T03:40:17.869Z,85.80
2017-04-24T03:41:17.834Z,85.50
2017-04-24T03:42:17.064Z,85.50
2017-04-24T03:43:16.645Z,85.40
2017-04-24T03:44:15.864Z,85.50
2017-04-24T03:45:15.088Z,85.50
2017-04-24T03:46:14.419Z,85.10
2017-04-24T03:47:14.728Z,85.40
2017-04-24T03:48:14.740Z,85.30
2017-04-24T03:49:14.005Z,85.30
2017-04-24T03:50:13.244Z,85.10
2017-04-24T03:51:12.843Z,85.00
2017-04-24T03:52:12.456Z,85.90
2017-04-24T03:53:12.094Z,85.20
2017-04-24T03:54:11.336Z,85.20
2017-04-24T03:55:10.974Z,85.10
2017-04-24T03:56:10.557Z,85.10
2017-04-24T03:57:09.831Z,85.20
2017-04-24T03:58:09.084Z,85.20
2017-04-24T03:59:09.108Z,85.20
2017-04-24T04:00:09.062Z,85.40
2017-04-24T04:01:09.068Z,85.20
2017-04-24T04:02:08.672Z,85.20
2017-04-24T04:03:07.926Z,85.00
2017-04-24T04:04:07.173Z,85.00
2017-04-24T04:05:06.766Z,85.30
2017-04-24T04:06:06.004Z,85.30
2017-04-24T04:07:05.620Z,85.40
2017-04-24T04:08:05.234Z,85.40
2017-04-24T04:09:04.813Z,85.40
2017-04-24T04:10:04.053Z,85.60
2017-04-24T04:11:04.430Z,85.50
2017-04-24T04:12:04.011Z,85.40
2017-04-24T04:13:03.296Z,85.20
2017-04-24T04:14:02.536Z,85.40
2017-04-24T04:15:01.772Z,85.40
2017-04-24T04:16:01.076Z,85.80
2017-04-24T04:17:02.754Z,85.90
2017-04-24T04:18:02.352Z,85.70
2017-04-24T04:19:01.632Z,86.00
2017-04-24T04:20:00.881Z,86.00
2017-04-24T04:21:00.445Z,86.00
2017-04-24T04:22:00.032Z,85.90
2017-04-24T04:22:59.691Z,85.90
2017-04-24T04:23:58.932Z,85.80
2017-04-24T04:24:59.321Z,85.80
2017-04-24T04:25:58.560Z,85.90
2017-04-24T04:26:57.809Z,86.20
2017-04-24T04:27:57.420Z,85.90
2017-04-24T04:28:57.401Z,85.50
2017-04-24T04:29:56.697Z,85.50
2017-04-24T04:30:55.976Z,85.70
2017-04-24T04:31:55.216Z,85.60
2017-04-24T04:32:54.816Z,85.50
2017-04-24T04:33:54.064Z,85.80
2017-04-24T04:34:53.328Z,85.70
2017-04-24T04:35:52.865Z,85.30
2017-04-24T04:36:52.137Z,85.40
2017-04-24T04:37:51.725Z,85.20
2017-04-24T04:38:50.997Z,85.20
2017-04-24T04:39:50.248Z,84.90
2017-04-24T04:40:50.260Z,85.00
2017-04-24T04:41:50.264Z,84.70
2017-04-24T04:42:50.329Z,84.60
2017-04-24T04:43:49.559Z,84.40
2017-04-24T04:44:50.129Z,84.40
2017-04-24T04:45:50.124Z,84.10
2017-04-24T04:46:49.369Z,84.10
2017-04-24T04:47:49.365Z,84.00
2017-04-24T04:48:48.664Z,83.60
2017-04-24T04:49:48.653Z,83.50
2017-04-24T04:50:48.413Z,83.30
2017-04-24T04:51:47.933Z,83.00
2017-04-24T04:52:47.177Z,82.90
2017-04-24T04:53:46.419Z,83.00
2017-04-24T04:54:45.688Z,83.10
2017-04-24T04:55:44.937Z,83.10
2017-04-24T04:56:44.940Z,82.90
2017-04-24T04:57:45.293Z,82.80
2017-04-24T04:58:45.131Z,82.90
2017-04-24T04:59:44.440Z,82.90
2017-04-24T05:00:44.461Z,82.80
2017-04-24T05:01:44.705Z,82.80
2017-04-24T05:02:43.989Z,82.50
2017-04-24T05:03:43.233Z,82.50
2017-04-24T05:04:42.476Z,82.00
2017-04-24T05:05:41.732Z,81.80
2017-04-24T05:06:41.698Z,81.50
2017-04-24T05:07:40.965Z,81.50
2017-04-24T05:08:40.221Z,81.50
2017-04-24T05:09:40.202Z,81.20
2017-04-24T05:10:39.445Z,81.20
2017-04-24T05:11:39.033Z,81.20
2017-04-24T05:12:38.314Z,81.20
2017-04-24T05:13:37.565Z,82.00
2017-04-24T05:14:36.813Z,81.40
2017-04-24T05:15:36.450Z,81.60
2017-04-24T05:16:35.953Z,81.60
2017-04-24T05:17:35.197Z,81.60
2017-04-24T05:18:34.477Z,81.60
2017-04-24T05:19:34.574Z,81.70
2017-04-24T05:20:34.388Z,81.80
2017-04-24T05:21:33.641Z,81.70
2017-04-24T05:22:32.885Z,81.60
2017-04-24T05:23:32.124Z,81.80
2017-04-24T05:24:31.396Z,81.60
2017-04-24T05:25:31.029Z,81.60
2017-04-24T05:26:31.268Z,81.50
2017-04-24T05:27:30.602Z,81.20
2017-04-24T05:28:30.089Z,81.10
2017-04-24T05:29:29.330Z,80.70
2017-04-24T05:30:28.952Z,80.50
2017-04-24T05:31:28.209Z,80.20
2017-04-24T05:32:27.674Z,80.40
2017-04-24T05:33:27.069Z,80.10
2017-04-24T05:34:26.388Z,79.60
2017-04-24T05:35:25.648Z,79.40
2017-04-24T05:36:25.529Z,79.00
2017-04-24T05:37:24.768Z,77.80
2017-04-24T05:38:24.748Z,77.30
2017-04-24T05:39:24.031Z,76.70
2017-04-24T05:40:23.297Z,76.60
2017-04-24T05:41:22.800Z,76.10
2017-04-24T05:42:22.068Z,75.90
2017-04-24T05:43:21.324Z,75.70
2017-04-24T05:44:21.565Z,75.00
2017-04-24T05:45:20.814Z,76.10
2017-04-24T05:46:20.849Z,74.60
2017-04-24T05:47:20.085Z,75.40
2017-04-24T05:48:19.489Z,74.30
2017-04-24T05:49:18.712Z,74.20
2017-04-24T05:50:18.677Z,73.20
2017-04-24T05:51:17.921Z,73.00
2017-04-24T05:52:17.157Z,73.00
2017-04-24T05:53:16.377Z,73.70
2017-04-24T05:54:16.439Z,74.00
2017-04-24T05:55:15.677Z,74.20
2017-04-24T05:56:15.640Z,73.90
2017-04-24T05:57:15.216Z,74.00
2017-04-24T05:58:14.788Z,74.10
2017-04-24T05:59:14.369Z,73.70
2017-04-24T06:00:14.368Z,73.40
2017-04-24T06:01:14.683Z,73.10
2017-04-24T06:02:14.664Z,73.90
2017-04-24T06:03:13.908Z,74.30
2017-04-24T06:04:13.526Z,74.70
2017-04-24T06:05:12.752Z,74.20
2017-04-24T06:06:12.013Z,73.70
2017-04-24T06:07:11.274Z,73.80
2017-04-24T06:08:10.857Z,74.20
2017-04-24T06:09:10.133Z,73.80
2017-04-24T06:10:10.408Z,72.90
2017-04-24T06:11:09.668Z,73.40
2017-04-24T06:12:08.942Z,73.10
2017-04-24T06:13:08.913Z,72.70
2017-04-24T06:14:08.189Z,72.20
2017-04-24T06:15:07.760Z,72.10
2017-04-24T06:16:07.001Z,72.50
2017-04-24T06:17:06.237Z,72.40
2017-04-24T06:18:05.785Z,72.40
2017-04-24T06:19:05.022Z,71.60
2017-04-24T06:20:04.256Z,71.70
2017-04-24T06:21:03.494Z,71.10
2017-04-24T06:22:03.540Z,68.80
2017-04-24T06:23:03.000Z,68.30
2017-04-24T06:24:02.585Z,66.00
2017-04-24T06:25:01.813Z,65.70
2017-04-24T06:26:01.043Z,64.80
2017-04-24T06:27:00.266Z,64.70
2017-04-24T06:27:59.836Z,66.20
2017-04-24T06:28:59.820Z,66.10
2017-04-24T06:29:59.108Z,67.80
2017-04-24T06:30:58.601Z,67.90
2017-04-24T06:31:58.180Z,67.30
2017-04-24T06:32:57.801Z,67.80
2017-04-24T06:33:57.028Z,67.20
2017-04-24T06:34:56.253Z,65.40
2017-04-24T06:35:55.513Z,64.00
2017-04-24T06:36:55.078Z,65.10
2017-04-24T06:37:55.413Z,64.50
2017-04-24T06:38:54.656Z,63.00
2017-04-24T06:39:53.888Z,63.30
2017-04-24T06:40:54.260Z,64.60
2017-04-24T06:41:53.859Z,65.10
2017-04-24T06:42:53.090Z,66.60
2017-04-24T06:43:53.068Z,65.50
2017-04-24T06:44:52.516Z,65.70
2017-04-24T06:45:52.449Z,66.50
2017-04-24T06:46:51.684Z,65.90
2017-04-24T06:47:51.784Z,66.40
2017-04-24T06:48:51.012Z,65.00
2017-04-24T06:49:50.510Z,65.90
2017-04-24T06:50:49.744Z,65.90
2017-04-24T06:51:48.969Z,66.60
2017-04-24T06:52:48.073Z,66.60
2017-04-24T06:53:47.328Z,66.00
2017-04-24T06:54:47.289Z,65.80
2017-04-24T06:55:46.876Z,66.20
2017-04-24T06:56:46.096Z,66.20
2017-04-24T06:57:45.320Z,66.60
2017-04-24T06:58:45.297Z,65.80
2017-04-24T06:59:44.552Z,65.30
2017-04-24T07:00:43.784Z,64.90
2017-04-24T07:01:43.763Z,64.80
2017-04-24T07:02:46.153Z,64.80
2017-04-24T07:03:46.416Z,64.80
2017-04-24T07:04:45.673Z,64.90
2017-04-24T07:05:45.259Z,64.70
2017-04-24T07:06:45.603Z,64.20
2017-04-24T07:07:45.056Z,64.00
2017-04-24T07:08:44.291Z,63.30
2017-04-24T07:09:43.528Z,62.90
2017-04-24T07:10:42.780Z,63.30
2017-04-24T07:11:42.704Z,63.30
2017-04-24T07:12:41.935Z,62.90
2017-04-24T07:13:43.338Z,62.00
2017-04-24T07:14:42.573Z,63.10
2017-04-24T07:15:41.817Z,64.30
2017-04-24T07:16:41.054Z,62.30
2017-04-24T07:17:40.396Z,63.00
2017-04-24T07:18:39.627Z,63.50
2017-04-24T07:19:39.947Z,63.60
2017-04-24T07:20:39.190Z,62.80
2017-04-24T07:21:38.708Z,61.60
2017-04-24T07:22:37.937Z,62.20
2017-04-24T07:23:37.240Z,61.80
2017-04-24T07:24:36.482Z,60.50
2017-04-24T07:25:36.684Z,60.10
2017-04-24T07:26:36.600Z,58.70
2017-04-24T07:27:35.857Z,58.40
2017-04-24T07:28:35.094Z,59.30
2017-04-24T07:29:35.762Z,59.50
2017-04-24T07:30:35.385Z,57.80
2017-04-24T07:31:34.629Z,57.20
2017-04-24T07:32:33.861Z,55.90
2017-04-24T07:33:33.460Z,56.40
2017-04-24T07:34:33.032Z,57.60
2017-04-24T07:35:32.263Z,58.10
2017-04-24T07:36:31.509Z,58.20
2017-04-24T07:37:31.085Z,58.50
2017-04-24T07:38:30.664Z,58.20
2017-04-24T07:39:31.009Z,58.20
2017-04-24T07:40:30.633Z,58.40
2017-04-24T07:41:29.864Z,57.40
2017-04-24T07:42:29.845Z,57.40
2017-04-24T07:43:29.341Z,57.30
2017-04-24T07:44:28.573Z,58.30
2017-04-24T07:45:27.828Z,58.90
2017-04-24T07:46:27.393Z,58.80
2017-04-24T07:47:27.388Z,58.50
2017-04-24T07:48:26.652Z,59.10
2017-04-24T07:49:25.912Z,59.50
2017-04-24T07:50:25.500Z,58.90
2017-04-24T07:51:24.776Z,59.50
2017-04-24T07:52:24.768Z,59.30
2017-04-24T07:53:24.368Z,58.80
2017-04-24T07:54:23.627Z,59.70
2017-04-24T07:55:22.896Z,59.70
2017-04-24T07:56:22.872Z,59.70
2017-04-24T07:57:22.828Z,59.30
2017-04-24T07:58:23.056Z,59.40
2017-04-24T07:59:22.669Z,59.60
2017-04-24T08:00:22.137Z,59.00
2017-04-24T08:01:21.381Z,59.30
2017-04-24T08:02:20.626Z,57.90
2017-04-24T08:03:19.927Z,58.30
2017-04-24T08:04:19.209Z,58.90
2017-04-24T08:05:18.452Z,58.70
2017-04-24T08:06:17.693Z,57.90
2017-04-24T08:07:17.404Z,58.50
2017-04-24T08:08:16.998Z,58.10
2017-04-24T08:09:16.282Z,58.30
2017-04-24T08:10:15.875Z,58.80
2017-04-24T08:11:15.699Z,58.30
2017-04-24T08:12:14.948Z,58.20
2017-04-24T08:13:14.465Z,58.30
2017-04-24T08:14:13.728Z,57.70
2017-04-24T08:15:13.736Z,57.80
2017-04-24T08:16:14.005Z,57.70
2017-04-24T08:17:13.256Z,57.50
2017-04-24T08:18:12.503Z,57.10
2017-04-24T08:19:11.749Z,57.50
2017-04-24T08:20:11.000Z,57.40
2017-04-24T08:21:11.040Z,58.10
2017-04-24T08:22:10.697Z,57.80
2017-04-24T08:23:10.723Z,57.70
2017-04-24T08:24:09.986Z,58.10
2017-04-24T08:25:09.234Z,58.10
2017-04-24T08:26:08.476Z,58.60
2017-04-24T08:27:08.850Z,58.30
2017-04-24T08:28:08.097Z,58.80
2017-04-24T08:29:08.076Z,58.10
2017-04-24T08:30:07.313Z,58.20
2017-04-24T08:31:06.565Z,58.90
2017-04-24T08:32:05.873Z,58.50
2017-04-24T08:33:06.192Z,58.60
2017-04-24T08:34:05.496Z,58.20
2017-04-24T08:35:04.748Z,58.60
2017-04-24T08:36:03.996Z,58.50
2017-04-24T08:37:03.608Z,58.50
2017-04-24T08:38:02.857Z,58.00
2017-04-24T08:39:02.505Z,58.40
2017-04-24T08:40:01.749Z,58.30
2017-04-24T08:41:01.363Z,58.00
2017-04-24T08:42:00.611Z,58.40
2017-04-24T08:43:00.642Z,58.10
2017-04-24T08:43:59.905Z,58.00
2017-04-24T08:44:59.934Z,58.50
2017-04-24T08:45:59.839Z,58.50
2017-04-24T08:47:00.287Z,58.50
2017-04-24T08:47:59.509Z,58.50
2017-04-24T08:48:58.762Z,56.60
2017-04-24T08:49:58.301Z,56.70
2017-04-24T08:50:57.552Z,56.50
2017-04-24T08:51:56.793Z,56.10
2017-04-24T08:52:57.125Z,55.60
2017-04-24T08:53:56.365Z,56.00
2017-04-24T08:54:55.588Z,55.60
2017-04-24T08:55:55.916Z,55.30
2017-04-24T08:56:55.522Z,54.50
2017-04-24T08:57:55.098Z,54.10
2017-04-24T08:58:55.408Z,51.80
2017-04-24T08:59:55.381Z,52.50
2017-04-24T09:00:54.960Z,50.70
2017-04-24T09:01:54.192Z,50.40
2017-04-24T09:02:53.456Z,50.70
2017-04-24T09:03:52.679Z,51.00
2017-04-24T09:04:53.005Z,50.00
2017-04-24T09:05:52.982Z,50.70
2017-04-24T09:06:52.904Z,50.00
2017-04-24T09:07:53.249Z,50.70
2017-04-24T09:08:53.214Z,50.20
2017-04-24T09:09:52.797Z,50.50
2017-04-24T09:10:52.375Z,50.90
2017-04-24T09:11:51.616Z,51.20
2017-04-24T09:12:52.313Z,51.40
2017-04-24T09:13:51.588Z,50.80
2017-04-24T09:14:51.064Z,51.50
2017-04-24T09:15:50.640Z,50.60
2017-04-24T09:16:50.162Z,49.80
2017-04-24T09:17:49.748Z,49.90
2017-04-24T09:18:49.007Z,48.90
2017-04-24T09:19:49.269Z,47.90
2017-04-24T09:20:49.593Z,49.00
2017-04-24T09:21:49.065Z,47.90
2017-04-24T09:22:48.661Z,46.70
2017-04-24T09:23:47.896Z,47.80
2017-04-24T09:24:47.473Z,48.80
2017-04-24T09:25:47.401Z,48.90
2017-04-24T09:26:46.968Z,49.90
2017-04-24T09:27:46.889Z,49.30
2017-04-24T09:28:46.151Z,49.30
2017-04-24T09:29:45.715Z,48.70
2017-04-24T09:30:45.685Z,49.00
2017-04-24T09:31:45.601Z,49.30
2017-04-24T09:32:44.830Z,49.10
2017-04-24T09:33:44.061Z,49.70
2017-04-24T09:34:43.653Z,49.70
2017-04-24T09:35:42.884Z,49.50
2017-04-24T09:36:42.440Z,49.40
2017-04-24T09:37:41.648Z,48.30
2017-04-24T09:38:40.881Z,48.60
2017-04-24T09:39:40.128Z,49.40
2017-04-24T09:40:39.711Z,49.70
2017-04-24T09:41:39.275Z,49.70
2017-04-24T09:42:38.845Z,48.90
2017-04-24T09:43:38.431Z,48.70
2017-04-24T09:44:38.768Z,48.80
2017-04-24T09:45:38.004Z,48.90
2017-04-24T09:46:37.253Z,49.10
2017-04-24T09:47:36.925Z,49.10
2017-04-24T09:48:36.893Z,49.00
2017-04-24T09:49:36.120Z,49.80
2017-04-24T09:50:36.473Z,49.80
2017-04-24T09:51:35.696Z,49.70
2017-04-24T09:52:35.261Z,49.90
2017-04-24T09:53:35.160Z,49.90
2017-04-24T09:54:34.397Z,49.40
2017-04-24T09:55:33.964Z,50.50
2017-04-24T09:56:33.222Z,49.40
2017-04-24T09:57:32.728Z,49.30
2017-04-24T09:58:32.295Z,49.20
2017-04-24T09:59:32.357Z,48.70
2017-04-24T10:00:31.583Z,49.10
2017-04-24T10:01:31.241Z,49.40
2017-04-24T10:02:30.832Z,49.00
2017-04-24T10:03:30.053Z,48.90
2017-04-24T10:04:29.546Z,48.30
2017-04-24T10:05:28.777Z,47.80
2017-04-24T10:06:28.114Z,48.60
2017-04-24T10:07:27.378Z,47.80
2017-04-24T10:08:26.584Z,48.30
2017-04-24T10:09:26.158Z,47.50
2017-04-24T10:10:25.389Z,48.00
2017-04-24T10:11:24.639Z,47.30
2017-04-24T10:12:24.196Z,46.80
2017-04-24T10:13:23.797Z,46.50
2017-04-24T10:14:24.198Z,46.60
2017-04-24T10:15:23.430Z,45.80
2017-04-24T10:16:23.017Z,46.80
2017-04-24T10:17:22.296Z,47.00
2017-04-24T10:18:22.274Z,46.10
2017-04-24T10:19:21.545Z,46.50
2017-04-24T10:20:20.788Z,45.70
2017-04-24T10:21:21.495Z,47.00
2017-04-24T10:22:20.836Z,46.80
2017-04-24T10:23:20.089Z,46.90
2017-04-24T10:24:20.062Z,46.20
2017-04-24T10:25:19.325Z,46.70
2017-04-24T10:26:18.637Z,47.10
2017-04-24T10:27:17.865Z,44.20
2017-04-24T10:28:17.865Z,44.10
2017-04-24T10:29:17.465Z,44.90
2017-04-24T10:30:17.464Z,44.10
2017-04-24T10:31:16.744Z,44.40
2017-04-24T10:32:15.988Z,45.60
2017-04-24T10:33:15.256Z,45.40
2017-04-24T10:34:14.509Z,45.50
2017-04-24T10:35:13.751Z,45.30
2017-04-24T10:36:13.010Z,46.20
2017-04-24T10:37:13.728Z,46.00
2017-04-24T10:38:12.964Z,46.10
2017-04-24T10:39:12.230Z,45.70
2017-04-24T10:40:11.480Z,45.90
2017-04-24T10:41:11.017Z,46.30
2017-04-24T10:42:11.001Z,46.70
2017-04-24T10:43:11.022Z,46.20
2017-04-24T10:44:11.021Z,46.60
2017-04-24T10:45:10.867Z,46.30
2017-04-24T10:46:10.108Z,47.00
2017-04-24T10:47:10.089Z,46.20
2017-04-24T10:48:09.681Z,44.40
2017-04-24T10:49:08.997Z,44.50
2017-04-24T10:50:08.496Z,45.00
2017-04-24T10:51:08.066Z,44.40
2017-04-24T10:52:07.657Z,43.90
2017-04-24T10:53:06.888Z,43.90
2017-04-24T10:54:07.201Z,44.10
2017-04-24T10:55:07.564Z,44.20
2017-04-24T10:56:07.308Z,45.50
2017-04-24T10:57:06.534Z,45.70
2017-04-24T10:58:06.308Z,45.60
2017-04-24T10:59:05.541Z,45.50
2017-04-24T11:00:04.782Z,45.40
2017-04-24T11:01:04.048Z,44.40
2017-04-24T11:02:04.365Z,45.80
2017-04-24T11:03:03.936Z,45.00
2017-04-24T11:04:03.168Z,44.90
2017-04-24T11:05:02.401Z,46.30
2017-04-24T11:06:02.620Z,46.60
2017-04-24T11:07:02.217Z,45.80
2017-04-24T11:08:01.521Z,45.60
2017-04-24T11:09:00.754Z,46.30
2017-04-24T11:10:00.332Z,45.10
2017-04-24T11:10:59.557Z,45.10
2017-04-24T11:11:59.864Z,44.40
2017-04-24T11:12:59.857Z,43.90
2017-04-24T11:13:59.088Z,45.40
2017-04-24T11:14:58.318Z,46.60
2017-04-24T11:15:57.888Z,47.30
2017-04-24T11:16:58.209Z,46.80
2017-04-24T11:17:57.430Z,46.70
2017-04-24T11:18:57.285Z,47.80
2017-04-24T11:19:56.513Z,48.00
2017-04-24T11:20:55.736Z,47.70
2017-04-24T11:21:55.704Z,47.30
2017-04-24T11:22:54.940Z,47.10
2017-04-24T11:23:54.929Z,48.10
2017-04-24T11:24:54.316Z,48.40
2017-04-24T11:25:53.892Z,47.70
2017-04-24T11:26:53.529Z,48.40
2017-04-24T11:27:54.196Z,48.50
2017-04-24T11:28:53.432Z,48.80
2017-04-24T11:29:53.445Z,49.10
2017-04-24T11:30:53.452Z,49.80
2017-04-24T11:31:53.777Z,50.10
2017-04-24T11:32:53.004Z,50.20
2017-04-24T11:33:52.986Z,50.50
2017-04-24T11:34:52.200Z,50.70
2017-04-24T11:35:51.648Z,49.00
2017-04-24T11:36:51.265Z,49.90
2017-04-24T11:37:50.840Z,50.60
2017-04-24T11:38:50.812Z,50.40
2017-04-24T11:39:50.039Z,50.80
2017-04-24T11:40:49.256Z,50.10
2017-04-24T11:41:48.489Z,50.30
2017-04-24T11:42:47.741Z,50.90
2017-04-24T11:43:47.312Z,50.50
2017-04-24T11:44:47.625Z,50.20
2017-04-24T11:45:46.869Z,50.50
2017-04-24T11:46:46.100Z,49.60
2017-04-24T11:47:45.328Z,50.20
2017-04-24T11:48:44.608Z,50.60
2017-04-24T11:49:44.569Z,50.80
2017-04-24T11:50:44.576Z,50.70
2017-04-24T11:51:44.940Z,50.60
2017-04-24T11:52:44.170Z,50.10
2017-04-24T11:53:43.401Z,50.70
2017-04-24T11:54:43.028Z,50.40
2017-04-24T11:55:42.277Z,50.70
2017-04-24T11:56:42.260Z,51.20
2017-04-24T11:57:41.500Z,51.70
2017-04-24T11:58:40.780Z,52.20
2017-04-24T11:59:40.016Z,52.20
2017-04-24T12:00:39.265Z,51.70
2017-04-24T12:01:39.176Z,51.70
2017-04-24T12:02:38.400Z,52.10
2017-04-24T12:03:37.974Z,52.20
2017-04-24T12:04:37.264Z,52.50
2017-04-24T12:05:37.254Z,51.70
2017-04-24T12:06:36.596Z,52.10
2017-04-24T12:07:36.168Z,52.60
2017-04-24T12:08:35.456Z,52.70
2017-04-24T12:09:35.393Z,53.10
2017-04-24T12:10:35.712Z,53.00
2017-04-24T12:11:35.710Z,53.10
2017-04-24T12:12:35.102Z,53.10
2017-04-24T12:13:34.597Z,53.40
2017-04-24T12:14:33.925Z,53.20
2017-04-24T12:15:33.549Z,53.40
2017-04-24T12:16:33.130Z,52.90
2017-04-24T12:17:32.710Z,53.20
2017-04-24T12:18:32.540Z,53.30
2017-04-24T12:19:32.100Z,53.30
2017-04-24T12:20:32.137Z,53.10
2017-04-24T12:21:31.704Z,53.10
2017-04-24T12:22:32.364Z,52.70
2017-04-24T12:23:31.617Z,52.60
2017-04-24T12:24:31.616Z,52.80
2017-04-24T12:25:31.585Z,52.80
2017-04-24T12:26:30.813Z,53.20
2017-04-24T12:27:30.025Z,53.40
2017-04-24T12:28:29.597Z,52.70
2017-04-24T12:29:29.572Z,52.90
2017-04-24T12:30:30.377Z,52.90
2017-04-24T12:31:30.789Z,53.50
2017-04-24T12:32:35.528Z,53.80
2017-04-24T12:33:34.748Z,53.30
2017-04-24T12:34:33.968Z,53.10
2017-04-24T12:35:33.574Z,53.20
2017-04-24T12:36:32.945Z,53.20
2017-04-24T12:37:32.936Z,52.70
2017-04-24T12:38:32.152Z,52.40
2017-04-24T12:39:31.720Z,52.60
2017-04-24T12:40:31.296Z,52.80
2017-04-24T12:41:30.905Z,52.80
2017-04-24T12:42:30.477Z,53.10
2017-04-24T12:43:29.696Z,53.00
2017-04-24T12:44:28.933Z,52.60
2017-04-24T12:45:28.188Z,52.60
2017-04-24T12:46:28.432Z,52.50
2017-04-24T12:47:28.389Z,53.20